createdAt,value
2018-11-04T00:03:16.632Z,30.23
2018-11-04T00:07:19.124Z,30.27
2018-11-04T00:11:21.596Z,30.57
2018-11-04T00:15:23.872Z,27.23
2018-11-04T00:19:26.230Z,27.50
2018-11-04T00:23:28.541Z,29.77
2018-11-04T00:27:30.860Z,28.73
2018-11-04T00:31:33.136Z,25.83
2018-11-04T00:35:35.477Z,29.13
2018-11-04T00:39:37.765Z,27.17
2018-11-04T00:43:40.068Z,30.20
2018-11-04T00:47:42.405Z,30.00
2018-11-04T00:51:44.739Z,30.83
2018-11-04T00:55:47.063Z,31.03
2018-11-04T00:59:49.420Z,30.93
2018-11-04T01:03:51.747Z,29.37
2018-11-04T01:07:54.079Z,28.80
2018-11-04T01:11:56.396Z,29.40
2018-11-04T01:15:58.734Z,32.17
2018-11-04T01:20:01.116Z,30.03
2018-11-04T01:24:03.475Z,29.77
2018-11-04T01:28:05.939Z,31.40
2018-11-04T01:32:08.341Z,31.63
2018-11-04T01:36:10.680Z,31.00
2018-11-04T01:40:13.074Z,30.57
2018-11-04T01:44:16.044Z,29.83
2018-11-04T01:48:18.429Z,28.43
2018-11-04T01:52:20.763Z,30.30
2018-11-04T01:56:23.281Z,30.70
2018-11-04T02:00:25.563Z,32.17
2018-11-04T02:04:27.850Z,32.37
2018-11-04T02:08:30.198Z,33.40
2018-11-04T02:12:32.489Z,35.53
2018-11-04T02:16:35.541Z,33.67
2018-11-04T02:20:37.918Z,33.10
2018-11-04T02:24:40.238Z,34.37
2018-11-04T02:28:42.590Z,37.90
2018-11-04T02:32:45.740Z,34.27
2018-11-04T02:36:48.063Z,31.47
2018-11-04T02:40:50.364Z,32.20
2018-11-04T02:44:52.658Z,34.23
2018-11-04T02:48:54.988Z,37.80
2018-11-04T02:52:57.300Z,32.90
2018-11-04T02:56:59.730Z,28.33
2018-11-04T03:01:02.395Z,27.27
2018-11-04T03:05:06.202Z,30.00
2018-11-04T03:09:09.242Z,33.87
2018-11-04T03:13:11.830Z,31.33
2018-11-04T03:17:14.217Z,32.53
2018-11-04T03:21:16.970Z,27.70
2018-11-04T03:25:19.282Z,29.53
2018-11-04T03:29:21.628Z,28.53
2018-11-04T03:33:23.960Z,27.60
2018-11-04T03:37:26.384Z,26.03
2018-11-04T03:41:28.794Z,28.33
2018-11-04T03:45:31.232Z,26.33
2018-11-04T03:49:33.642Z,28.30
2018-11-04T03:53:36.099Z,27.50
2018-11-04T03:57:38.519Z,27.77
2018-11-04T04:01:40.824Z,30.77
2018-11-04T04:05:43.174Z,27.93
2018-11-04T04:09:45.478Z,26.60
2018-11-04T04:13:47.756Z,28.73
2018-11-04T04:17:50.022Z,31.97
2018-11-04T04:21:52.352Z,31.33
2018-11-04T04:25:54.624Z,31.53
2018-11-04T04:29:57.119Z,33.60
2018-11-04T04:33:59.462Z,27.80
2018-11-04T04:38:07.616Z,28.83
2018-11-04T04:42:09.981Z,29.73
2018-11-04T04:46:12.309Z,27.57
2018-11-04T04:50:14.631Z,27.27
2018-11-04T04:54:16.961Z,27.10
2018-11-04T04:58:19.478Z,28.27
2018-11-04T05:02:21.807Z,32.60
2018-11-04T05:06:24.197Z,29.00
2018-11-04T05:10:26.501Z,31.40
2018-11-04T05:14:28.893Z,30.40
2018-11-04T05:18:31.131Z,33.90
2018-11-04T05:22:33.565Z,34.10
2018-11-04T05:26:35.897Z,31.10
2018-11-04T05:30:38.239Z,31.87
2018-11-04T05:34:50.287Z,30.97
2018-11-04T05:38:52.646Z,34.27
2018-11-04T05:42:55.018Z,32.53
2018-11-04T05:46:57.311Z,30.80
2018-11-04T05:50:59.666Z,32.10
2018-11-04T05:55:01.999Z,32.03
2018-11-04T05:59:04.382Z,33.37
2018-11-04T06:03:06.678Z,32.93
2018-11-04T06:07:09.024Z,31.60
2018-11-04T06:11:11.362Z,35.90
2018-11-04T06:15:14.136Z,35.57
2018-11-04T06:19:16.497Z,37.63
2018-11-04T06:23:18.832Z,35.17
2018-11-04T06:27:21.185Z,37.57
2018-11-04T06:31:23.523Z,33.70
2018-11-04T06:35:25.837Z,38.27
2018-11-04T06:39:28.185Z,39.33
2018-11-04T06:43:30.542Z,39.87
2018-11-04T06:47:32.895Z,40.80
2018-11-04T06:51:35.269Z,41.50
2018-11-04T06:55:37.606Z,42.33
2018-11-04T06:59:39.981Z,42.33
2018-11-04T07:03:53.958Z,39.47
2018-11-04T07:07:56.343Z,40.63
2018-11-04T07:11:58.758Z,42.23
2018-11-04T07:16:01.185Z,38.63
2018-11-04T07:20:04.048Z,36.90
2018-11-04T08:08:44.922Z,39.27
2018-11-04T08:12:47.668Z,39.87
2018-11-04T08:16:50.588Z,46.03
2018-11-04T08:20:53.317Z,46.57
2018-11-04T08:29:23.663Z,39.27
2018-11-04T08:33:26.269Z,36.17
2018-11-04T08:37:28.708Z,37.40
2018-11-04T08:41:31.211Z,39.30
2018-11-04T08:45:33.799Z,37.80
2018-11-04T08:49:36.327Z,37.90
2018-11-04T08:53:38.865Z,37.80
2018-11-04T08:57:41.519Z,39.50
2018-11-04T09:01:44.081Z,39.40
2018-11-04T09:05:46.502Z,38.20
2018-11-04T09:09:49.077Z,41.03
2018-11-04T09:13:51.582Z,38.17
2018-11-04T09:17:54.152Z,40.07
2018-11-04T09:21:56.759Z,46.07
2018-11-04T09:25:59.122Z,41.10
2018-11-04T09:30:01.667Z,41.53
2018-11-04T09:34:04.445Z,39.60
2018-11-04T09:38:07.157Z,40.97
2018-11-04T09:42:09.631Z,38.00
2018-11-04T09:46:12.116Z,40.70
2018-11-04T09:50:21.255Z,35.80
2018-11-04T09:54:23.822Z,38.63
2018-11-04T09:58:26.336Z,37.67
2018-11-04T10:02:28.914Z,37.60
2018-11-04T10:06:31.557Z,37.83
2018-11-04T10:10:34.110Z,37.60
2018-11-04T10:14:36.705Z,39.53
2018-11-04T10:18:39.287Z,37.83
2018-11-04T10:22:42.001Z,38.50
2018-11-04T10:26:44.602Z,38.27
2018-11-04T10:30:47.121Z,39.57
2018-11-04T10:34:51.828Z,38.93
2018-11-04T10:38:54.334Z,37.77
2018-11-04T10:42:57.606Z,34.80
2018-11-04T10:47:00.265Z,38.33
2018-11-04T10:51:03.545Z,36.00
2018-11-04T10:55:07.801Z,38.10
2018-11-04T10:59:10.296Z,38.87
2018-11-04T11:03:13.140Z,39.27
2018-11-04T11:07:15.757Z,41.73
2018-11-04T11:11:18.453Z,39.80
2018-11-04T11:15:20.980Z,33.70
2018-11-04T11:19:23.614Z,36.03
2018-11-04T11:23:26.305Z,35.60
2018-11-04T11:27:29.116Z,33.83
2018-11-04T11:31:31.737Z,34.87
2018-11-04T11:35:35.214Z,34.73
2018-11-04T11:39:37.706Z,34.03
2018-11-04T11:43:40.169Z,31.50
2018-11-04T11:47:42.610Z,32.77
2018-11-04T11:51:45.216Z,34.43
2018-11-04T11:55:48.558Z,33.27
2018-11-04T11:59:51.344Z,30.43
2018-11-04T12:03:53.928Z,31.80
2018-11-04T12:07:56.764Z,28.57
2018-11-04T12:11:59.259Z,28.70
2018-11-04T12:16:01.890Z,30.03
2018-11-04T12:20:06.028Z,29.73
2018-11-04T12:24:09.178Z,35.50
2018-11-04T12:28:12.099Z,38.90
2018-11-04T12:32:14.532Z,27.57
2018-11-04T12:36:18.390Z,25.63
2018-11-04T12:40:21.987Z,30.93
2018-11-04T12:44:25.013Z,25.87
2018-11-04T12:48:27.607Z,23.27
2018-11-04T12:52:30.151Z,22.57
2018-11-04T12:56:32.618Z,25.60
2018-11-04T13:00:35.121Z,23.73
2018-11-04T13:04:38.347Z,22.53
2018-11-04T13:08:41.945Z,22.47
2018-11-04T13:12:44.599Z,21.17
2018-11-04T13:16:47.274Z,24.57
2018-11-04T13:20:50.378Z,22.20
2018-11-04T13:24:53.507Z,30.87
2018-11-04T13:28:56.169Z,28.27
2018-11-04T13:32:59.333Z,21.00
2018-11-04T13:37:03.359Z,28.67
2018-11-04T13:41:06.879Z,26.17
2018-11-04T13:45:10.223Z,24.90
2018-11-04T13:49:12.768Z,24.40
2018-11-04T13:53:15.248Z,22.47
2018-11-04T13:57:17.754Z,20.63
2018-11-04T14:01:21.245Z,19.40
2018-11-04T14:05:23.735Z,21.47
2018-11-04T14:09:26.690Z,23.20
2018-11-04T14:13:31.466Z,26.47
2018-11-04T14:17:34.552Z,26.83
2018-11-04T14:21:37.704Z,24.13
2018-11-04T14:25:41.043Z,18.10
2018-11-04T14:29:43.662Z,22.27
2018-11-04T14:33:46.979Z,26.00
2018-11-04T14:37:49.972Z,20.00
2018-11-04T14:41:52.454Z,19.70
2018-11-04T14:45:55.096Z,20.30
2018-11-04T14:49:58.109Z,18.43
2018-11-04T14:54:00.875Z,18.63
2018-11-04T14:58:05.590Z,19.83
2018-11-04T15:02:08.304Z,18.13
2018-11-04T15:06:11.212Z,16.23
2018-11-04T15:10:14.892Z,16.00
2018-11-04T15:14:17.852Z,15.53
2018-11-04T15:18:22.198Z,16.87
2018-11-04T15:22:25.040Z,16.20
2018-11-04T15:26:29.512Z,17.07
2018-11-04T15:30:32.219Z,14.90
2018-11-04T15:34:35.074Z,17.03
2018-11-04T15:38:38.484Z,15.63
2018-11-04T15:42:41.772Z,16.43
2018-11-04T15:46:44.860Z,16.50
2018-11-04T15:50:47.461Z,18.40
2018-11-04T15:54:50.279Z,16.17
2018-11-04T15:58:52.822Z,17.13
2018-11-04T16:02:56.074Z,17.50
2018-11-04T16:06:59.202Z,18.33
2018-11-04T16:11:02.331Z,18.02
2018-11-04T16:15:07.065Z,19.03
2018-11-04T16:19:09.763Z,16.33
2018-11-04T16:23:12.518Z,15.83
2018-11-04T16:27:15.787Z,15.00
2018-11-04T16:31:18.419Z,21.07
2018-11-04T16:35:21.396Z,19.48
2018-11-04T16:39:24.588Z,18.87
2018-11-04T16:43:27.681Z,22.07
2018-11-04T16:47:30.329Z,20.77
2018-11-04T16:51:33.128Z,20.90
2018-11-04T16:55:35.687Z,23.40
2018-11-04T16:59:39.577Z,18.90
2018-11-04T17:03:42.251Z,20.60
2018-11-04T17:07:44.869Z,16.93
2018-11-04T17:11:47.860Z,16.87
2018-11-04T17:15:51.232Z,18.30
2018-11-04T17:19:54.003Z,17.17
2018-11-04T17:23:56.517Z,17.50
2018-11-04T17:27:59.996Z,14.50
2018-11-04T17:32:02.926Z,15.30
2018-11-04T17:36:05.775Z,18.23
2018-11-04T17:40:09.794Z,18.03
2018-11-04T17:44:12.979Z,19.60
2018-11-04T17:48:15.853Z,15.90
2018-11-04T17:52:18.828Z,20.77
2018-11-04T17:56:21.443Z,18.80
2018-11-04T18:00:25.108Z,15.90
2018-11-04T18:04:27.981Z,23.38
2018-11-04T18:08:31.105Z,20.80
2018-11-04T18:12:33.960Z,16.67
2018-11-04T18:16:37.668Z,17.40
2018-11-04T18:20:40.273Z,19.27
2018-11-04T18:24:43.158Z,18.27
2018-11-04T18:28:45.861Z,17.43
2018-11-04T18:32:48.486Z,16.67
2018-11-04T18:36:51.962Z,19.50
2018-11-04T18:40:54.446Z,17.20
2018-11-04T18:44:57.124Z,16.90
2018-11-04T18:48:59.572Z,19.97
2018-11-04T18:53:02.185Z,20.30
2018-11-04T18:57:05.155Z,19.57
2018-11-04T19:01:07.728Z,19.30
2018-11-04T19:05:10.691Z,21.23
2018-11-04T19:09:13.172Z,19.03
2018-11-04T19:13:16.221Z,17.93
2018-11-04T19:17:19.197Z,19.53
2018-11-04T19:21:22.010Z,19.23
2018-11-04T19:25:25.807Z,20.10
2018-11-04T19:29:28.771Z,20.53
2018-11-04T19:33:31.716Z,19.57
2018-11-04T19:37:34.592Z,20.77
2018-11-04T19:41:37.676Z,20.20
2018-11-04T19:45:40.872Z,36.50
2018-11-04T19:49:43.971Z,23.70
2018-11-04T19:53:47.977Z,22.13
2018-11-04T19:57:50.569Z,19.80
2018-11-04T20:01:53.135Z,23.00
2018-11-04T20:05:55.929Z,22.75
2018-11-04T20:09:58.360Z,21.75
2018-11-04T20:14:06.591Z,18.97
2018-11-04T20:18:14.631Z,20.67
2018-11-04T20:22:17.390Z,19.93
2018-11-04T20:26:20.000Z,20.20
2018-11-04T20:30:22.495Z,21.97
2018-11-04T20:34:25.131Z,21.53
2018-11-04T20:38:33.530Z,23.67
2018-11-04T20:42:36.147Z,21.50
2018-11-04T20:46:39.084Z,23.67
2018-11-04T20:50:48.001Z,20.73
2018-11-04T20:54:50.509Z,22.07
2018-11-04T20:58:53.032Z,23.93
2018-11-04T21:02:55.966Z,23.70
2018-11-04T21:06:58.759Z,22.10
2018-11-04T21:11:01.556Z,24.43
2018-11-04T21:15:05.605Z,25.10
2018-11-04T21:19:08.251Z,23.70
2018-11-04T21:23:11.135Z,24.37
2018-11-04T21:27:13.582Z,25.67
2018-11-04T21:31:16.044Z,23.17
2018-11-04T21:35:18.555Z,24.80
2018-11-04T21:39:21.096Z,25.17
2018-11-04T21:43:24.043Z,23.33
2018-11-04T21:47:26.447Z,22.63
2018-11-04T21:51:29.051Z,22.77
2018-11-04T21:55:31.647Z,24.55
2018-11-04T21:59:36.814Z,24.90
2018-11-04T22:03:39.411Z,23.40
2018-11-04T22:07:42.800Z,21.97
2018-11-04T22:11:45.226Z,22.17
2018-11-04T22:15:47.689Z,22.77
2018-11-04T22:19:50.186Z,23.57
2018-11-04T22:23:52.731Z,24.97
2018-11-04T22:27:55.238Z,24.00
2018-11-04T22:31:57.695Z,23.80
2018-11-04T22:36:00.094Z,25.40
2018-11-04T22:40:03.360Z,23.57
2018-11-04T22:44:07.315Z,27.47
2018-11-04T22:48:10.293Z,26.57
2018-11-04T22:52:12.735Z,25.07
2018-11-04T22:56:15.169Z,26.30
2018-11-04T23:00:23.296Z,26.07
2018-11-04T23:04:31.379Z,25.53
2018-11-04T23:08:34.005Z,26.30
2018-11-04T23:12:36.691Z,25.10
2018-11-04T23:16:39.231Z,26.97
2018-11-04T23:20:41.641Z,27.00
2018-11-04T23:24:44.775Z,30.27
2018-11-04T23:28:47.303Z,28.87
2018-11-04T23:32:49.942Z,28.97
2018-11-04T23:36:53.394Z,28.03
2018-11-04T23:40:55.822Z,27.77
2018-11-04T23:44:58.488Z,27.73
2018-11-04T23:49:00.995Z,25.57
2018-11-04T23:53:03.498Z,24.77
2018-11-04T23:57:06.023Z,26.00
